Time;durP1;ratioP1;P1;durP2;ratioP2;P2;SDS_P1;SDS_P2;PMS_P1;PMS_P2;Temp;Humidity;BMP_temperature;BMP_pressure;BME280_temperature;BME280_humidity;BME280_pressure;Samples;Min_cycle;Max_cycle;Signal;HPM_P1;HPM_P2
2023/08/17 00:00:46;;;;;;;6.10;3.05;;;;;;;;;;4968074;28;20030;-82
2023/08/17 00:03:12;;;;;;;5.82;3.10;;;;;;;;;;4968355;28;20050;-81
2023/08/17 00:05:38;;;;;;;3.85;2.22;;;;;;;;;;4968340;28;20503;-83
2023/08/17 00:08:04;;;;;;;5.65;2.42;;;;;;;;;;4993948;28;20027;-82
2023/08/17 00:10:30;;;;;;;7.72;3.08;;;;;;;;;;4972713;28;20030;-82
2023/08/17 00:12:56;;;;;;;5.63;3.03;;;;;;;;;;4981350;28;20058;-84
2023/08/17 00:15:22;;;;;;;4.35;2.97;;;;;;;;;;4948610;28;20810;-83
2023/08/17 00:17:48;;;;;;;5.78;2.58;;;;;;;;;;4978507;28;20165;-82
2023/08/17 00:20:14;;;;;;;3.72;2.45;;;;;;;;;;4965620;28;20027;-84
2023/08/17 00:22:40;;;;;;;4.15;1.52;;;;;;;;;;4980275;28;20061;-84
2023/08/17 00:25:07;;;;;;;2.33;1.20;;;;;;;;;;4973914;28;20042;-83
2023/08/17 00:27:33;;;;;;;4.10;1.70;;;;;;;;;;4963233;28;20019;-83
2023/08/17 00:29:59;;;;;;;2.25;1.35;;;;;;;;;;4962375;28;20027;-83
2023/08/17 00:32:25;;;;;;;3.03;1.42;;;;;;;;;;4962945;28;20679;-82
2023/08/17 00:34:51;;;;;;;2.08;1.30;;;;;;;;;;4976712;28;20041;-83
2023/08/17 00:37:17;;;;;;;1.70;0.77;;;;;;;;;;4968747;28;20042;-83
2023/08/17 00:39:43;;;;;;;2.28;1.15;;;;;;;;;;4968982;28;20053;-83
2023/08/17 00:42:09;;;;;;;1.35;0.98;;;;;;;;;;4969420;28;20052;-83
2023/08/17 00:44:35;;;;;;;5.70;1.30;;;;;;;;;;4982715;28;20038;-81
2023/08/17 00:47:02;;;;;;;2.15;1.23;;;;;;;;;;4972864;28;20023;-82
2023/08/17 00:49:28;;;;;;;1.95;1.00;;;;;;;;;;4965957;28;20222;-83
2023/08/17 00:51:54;;;;;;;1.17;0.77;;;;;;;;;;4982108;28;21298;-84
2023/08/17 00:54:24;;;;;;;1.83;0.95;;;20.90;99.90;;;;;;4968284;28;20031;-81
2023/08/17 00:56:50;;;;;;;1.60;0.85;;;;;;;;;;4968510;28;20388;-83
2023/08/17 00:59:16;;;;;;;1.55;0.93;;;;;;;;;;4980239;28;20102;-83
2023/08/17 01:01:42;;;;;;;3.33;1.40;;;;;;;;;;4968112;28;20102;-84
2023/08/17 01:04:08;;;;;;;2.05;0.82;;;;;;;;;;4988863;28;20037;-83
2023/08/17 01:06:34;;;;;;;4.90;1.17;;;;;;;;;;4972627;28;20087;-82
2023/08/17 01:09:00;;;;;;;1.17;0.75;;;;;;;;;;4967409;28;20042;-83
2023/08/17 01:12:03;;;;;;;1.73;0.70;;;20.30;99.90;;;;;;4982347;28;20126;-84
2023/08/17 01:14:38;;;;;;;1.50;0.70;;;20.60;99.90;;;;;;4959243;28;20601;-82
2023/08/17 01:17:12;;;;;;;3.35;0.88;;;20.60;99.90;;;;;;4968516;28;20058;-82
2023/08/17 01:19:38;;;;;;;4.95;0.93;;;19.90;99.90;;;;;;4964677;28;20043;-84
2023/08/17 01:22:08;;;;;;;1.42;0.80;;;19.90;99.90;;;;;;4949951;28;20039;-82
2023/08/17 01:24:34;;;;;;;1.48;0.77;;;;;;;;;;4971234;28;20031;-84
2023/08/17 01:27:00;;;;;;;2.47;0.90;;;;;;;;;;4980105;28;20491;-83
2023/08/17 01:29:26;;;;;;;4.03;0.57;;;20.60;99.90;;;;;;4963425;28;20035;-82
2023/08/17 01:32:06;;;;;;;1.73;0.43;;;19.90;99.90;;;;;;4962926;28;20430;-82
2023/08/17 01:34:43;;;;;;;2.05;0.90;;;20.20;99.90;;;;;;4969072;28;20095;-83
2023/08/17 01:37:11;;;;;;;1.67;0.70;;;20.30;99.90;;;;;;4965669;28;20026;-82
2023/08/17 01:39:43;;;;;;;2.15;1.00;;;;;;;;;;4966516;28;20022;-83
2023/08/17 01:42:12;;;;;;;1.55;0.80;;;20.30;99.90;;;;;;4964470;28;20502;-83
2023/08/17 01:44:38;;;;;;;1.10;0.47;;;;;;;;;;4943389;28;20031;-83
2023/08/17 01:47:04;;;;;;;1.77;1.02;;;;;;;;;;4983350;28;20479;-82
2023/08/17 01:49:30;;;;;;;1.27;0.68;;;;;;;;;;4946565;28;20348;-83
2023/08/17 01:51:57;;;;;;;1.05;0.47;;;;;;;;;;4976972;28;20110;-82
2023/08/17 01:54:23;;;;;;;1.40;0.60;;;;;;;;;;4985391;28;20046;-81
2023/08/17 01:56:49;;;;;;;2.25;0.70;;;;;;;;;;4989476;28;20046;-82
2023/08/17 01:59:15;;;;;;;1.98;0.70;;;;;;;;;;4974783;28;20039;-82
2023/08/17 02:01:40;;;;;;;1.00;0.47;;;;;;;;;;4958468;28;20038;-82
2023/08/17 02:04:06;;;;;;;1.27;0.60;;;;;;;;;;4961821;28;20034;-81
2023/08/17 02:06:32;;;;;;;1.48;0.80;;;;;;;;;;4961744;28;20033;-81
2023/08/17 02:08:59;;;;;;;0.95;0.35;;;;;;;;;;4961583;28;20039;-81
2023/08/17 02:11:25;;;;;;;1.30;0.43;;;;;;;;;;4972456;28;20035;-81
2023/08/17 02:13:51;;;;;;;3.13;0.88;;;;;;;;;;4976551;28;20038;-81
2023/08/17 02:16:17;;;;;;;1.55;0.60;;;;;;;;;;4974320;28;20061;-81
2023/08/17 02:18:43;;;;;;;5.00;1.00;;;;;;;;;;4959579;28;20066;-81
2023/08/17 02:21:09;;;;;;;2.13;0.70;;;;;;;;;;4953325;28;20031;-81
2023/08/17 02:23:35;;;;;;;2.63;0.73;;;;;;;;;;4971480;28;20031;-81
2023/08/17 02:26:01;;;;;;;0.95;0.45;;;;;;;;;;4978103;28;20023;-81
2023/08/17 02:28:27;;;;;;;2.05;0.82;;;;;;;;;;4970856;28;20077;-82
2023/08/17 02:30:56;;;;;;;0.98;0.57;;;;;;;;;;4960410;28;20027;-81
2023/08/17 02:33:23;;;;;;;2.28;0.73;;;;;;;;;;4970094;28;20081;-81
2023/08/17 02:35:52;;;;;;;2.47;0.80;;;;;;;;;;4958248;28;20034;-81
2023/08/17 02:38:18;;;;;;;1.75;0.75;;;;;;;;;;4972029;28;20034;-81
2023/08/17 02:40:44;;;;;;;1.20;0.60;;;;;;;;;;4956001;28;20150;-82
2023/08/17 02:43:10;;;;;;;1.85;0.65;;;;;;;;;;4959154;28;20095;-80
2023/08/17 02:45:36;;;;;;;3.13;0.82;;;;;;;;;;4985419;28;20046;-80
2023/08/17 02:48:02;;;;;;;0.95;0.60;;;;;;;;;;4990656;28;20065;-82
2023/08/17 02:50:28;;;;;;;2.25;0.75;;;;;;;;;;4980871;28;20034;-82
2023/08/17 02:52:54;;;;;;;1.77;0.75;;;;;;;;;;4960895;28;20098;-82
2023/08/17 02:55:20;;;;;;;0.65;0.35;;;;;;;;;;4957580;28;20481;-82
2023/08/17 02:57:48;;;;;;;2.50;0.95;;;;;;;;;;4957120;28;20124;-83
2023/08/17 03:00:14;;;;;;;3.75;1.13;;;19.10;99.90;;;;;;4957336;28;20031;-81
2023/08/17 03:02:40;;;;;;;4.25;1.13;;;;;;;;;;4961342;28;20104;-81
2023/08/17 03:05:06;;;;;;;1.38;0.60;;;;;;;;;;4975202;28;20502;-80
2023/08/17 03:07:32;;;;;;;1.63;0.77;;;;;;;;;;4955471;28;20114;-81
2023/08/17 03:09:58;;;;;;;1.83;0.60;;;;;;;;;;4968471;28;20043;-81
2023/08/17 03:12:24;;;;;;;2.88;0.88;;;;;;;;;;4969480;28;20038;-81
2023/08/17 03:14:50;;;;;;;2.05;0.70;;;;;;;;;;4954334;28;20035;-81
2023/08/17 03:17:16;;;;;;;1.40;0.60;;;;;;;;;;4961011;28;20035;-80
2023/08/17 03:19:42;;;;;;;1.05;0.50;;;;;;;;;;4973937;28;20118;-81
2023/08/17 03:22:08;;;;;;;1.83;0.70;;;;;;;;;;4979485;28;20248;-82
2023/08/17 03:24:35;;;;;;;1.30;0.70;;;;;;;;;;4959563;28;20031;-81
2023/08/17 03:27:01;;;;;;;1.48;0.65;;;;;;;;;;4963365;28;20094;-83
2023/08/17 03:29:27;;;;;;;1.50;0.52;;;;;;;;;;4951657;28;20041;-81
2023/08/17 03:31:53;;;;;;;1.33;0.60;;;;;;;;;;4957916;28;20065;-82
2023/08/17 03:34:19;;;;;;;4.57;0.70;;;;;;;;;;4959505;28;21282;-81
2023/08/17 03:36:45;;;;;;;0.85;0.52;;;;;;;;;;4960963;28;20040;-81
2023/08/17 03:39:11;;;;;;;1.27;0.73;;;;;;;;;;4972711;28;20023;-80
2023/08/17 03:41:37;;;;;;;2.67;1.13;;;;;;;;;;4962278;28;20038;-81
2023/08/17 03:44:05;;;;;;;3.22;1.42;;;;;;;;;;4964673;28;20023;-81
2023/08/17 03:46:32;;;;;;;4.82;0.70;;;;;;;;;;4960358;28;20024;-81
2023/08/17 03:48:57;;;;;;;1.38;0.70;;;;;;;;;;4964943;28;20173;-82
2023/08/17 03:51:23;;;;;;;4.13;1.25;;;;;;;;;;4963345;28;20530;-80
2023/08/17 03:53:50;;;;;;;1.35;0.65;;;;;;;;;;4969604;28;20035;-81
2023/08/17 03:56:16;;;;;;;5.93;0.70;;;;;;;;;;4966258;28;20026;-81
2023/08/17 03:58:43;;;;;;;4.25;0.85;;;;;;;;;;4978032;28;20035;-82
2023/08/17 04:01:11;;;;;;;1.30;0.60;;;;;;;;;;4977420;28;20151;-79
2023/08/17 04:03:38;;;;;;;1.15;0.70;;;;;;;;;;4953080;28;20030;-81
2023/08/17 04:06:10;;;;;;;1.00;0.80;;;;;;;;;;4983126;28;20079;-82
2023/08/17 04:08:36;;;;;;;0.90;0.60;;;;;;;;;;4966735;28;20027;-81
2023/08/17 04:11:02;;;;;;;2.53;1.10;;;;;;;;;;4965435;28;20034;-80
2023/08/17 04:13:28;;;;;;;3.28;0.80;;;;;;;;;;4961752;28;20558;-81
2023/08/17 04:15:54;;;;;;;2.67;0.90;;;;;;;;;;4978589;28;20046;-83
2023/08/17 04:18:20;;;;;;;2.22;0.77;;;;;;;;;;4968242;28;20035;-80
2023/08/17 04:20:46;;;;;;;1.92;1.13;;;;;;;;;;4949339;28;20242;-82
2023/08/17 04:23:12;;;;;;;3.45;1.20;;;;;;;;;;4981382;28;20595;-82
2023/08/17 04:25:38;;;;;;;3.30;1.10;;;;;;;;;;4961234;28;20064;-82
2023/08/17 04:28:04;;;;;;;1.95;1.02;;;;;;;;;;4977554;28;20086;-82
2023/08/17 04:30:30;;;;;;;2.33;1.17;;;;;;;;;;4980458;28;20035;-82
2023/08/17 04:32:56;;;;;;;3.88;1.63;;;;;;;;;;4956659;28;20038;-84
2023/08/17 04:35:22;;;;;;;4.95;1.65;;;;;;;;;;4969636;28;20046;-82
2023/08/17 04:37:49;;;;;;;3.67;1.80;;;;;;;;;;4961362;28;20035;-83
2023/08/17 04:40:15;;;;;;;3.65;1.63;;;;;;;;;;4971740;28;20065;-81
2023/08/17 04:42:42;;;;;;;4.45;2.08;;;;;;;;;;4959707;28;20054;-81
2023/08/17 04:45:08;;;;;;;3.45;2.03;;;;;;;;;;4973317;28;20110;-80
2023/08/17 04:47:34;;;;;;;6.07;2.15;;;;;;;;;;4956433;28;20504;-80
2023/08/17 04:50:00;;;;;;;3.10;1.73;;;;;;;;;;4946699;28;20035;-82
2023/08/17 04:52:27;;;;;;;4.75;2.55;;;;;;;;;;4958305;28;20062;-80
2023/08/17 04:54:53;;;;;;;4.60;1.65;;;;;;;;;;4951964;28;20027;-80
2023/08/17 04:57:19;;;;;;;4.90;2.10;;;;;;;;;;4973950;28;20026;-81
2023/08/17 04:59:45;;;;;;;4.10;1.88;;;;;;;;;;4976430;28;20526;-81
2023/08/17 05:02:11;;;;;;;6.80;1.95;;;;;;;;;;4962273;28;20112;-80
2023/08/17 05:04:38;;;;;;;6.82;2.25;;;;;;;;;;4977588;28;20065;-81
2023/08/17 05:07:04;;;;;;;7.38;2.53;;;;;;;;;;4979515;28;20095;-80
2023/08/17 05:09:30;;;;;;;5.32;2.15;;;;;;;;;;4966207;28;20107;-81
2023/08/17 05:11:56;;;;;;;4.82;1.90;;;;;;;;;;4979092;28;20518;-81
2023/08/17 05:14:22;;;;;;;7.95;3.35;;;;;;;;;;4984908;28;20050;-81
2023/08/17 05:16:48;;;;;;;3.80;1.95;;;;;;;;;;4977933;28;20504;-83
2023/08/17 05:19:14;;;;;;;3.20;1.65;;;;;;;;;;4975434;28;20027;-81
2023/08/17 05:21:41;;;;;;;5.07;2.60;;;;;;;;;;4963366;28;20034;-79
2023/08/17 05:24:07;;;;;;;6.65;2.40;;;;;;;;;;4979282;28;20026;-82
2023/08/17 05:26:33;;;;;;;8.52;2.40;;;;;;;;;;4969399;28;20404;-81
2023/08/17 05:28:59;;;;;;;8.63;2.17;;;;;;;;;;4958447;28;20475;-81
2023/08/17 05:31:25;;;;;;;4.72;2.58;;;;;;;;;;4969221;28;20031;-80
2023/08/17 05:33:51;;;;;;;5.03;2.55;;;;;;;;;;4980917;28;20055;-81
2023/08/17 05:36:17;;;;;;;8.20;2.28;;;;;;;;;;4969259;28;20511;-80
2023/08/17 05:38:43;;;;;;;3.70;1.83;;;;;;;;;;4964038;28;20027;-82
2023/08/17 05:41:09;;;;;;;3.38;1.70;;;;;;;;;;4979295;28;20058;-82
2023/08/17 05:43:35;;;;;;;3.63;2.35;;;;;;;;;;4968119;28;20098;-81
2023/08/17 05:46:01;;;;;;;3.33;1.45;;;;;;;;;;4960209;28;20032;-81
2023/08/17 05:48:27;;;;;;;3.83;1.90;;;;;;;;;;4954273;28;20027;-82
2023/08/17 05:50:55;;;;;;;5.15;2.10;;;20.50;99.90;;;;;;4962678;28;20022;-83
2023/08/17 05:53:21;;;;;;;3.78;2.05;;;;;;;;;;4959087;28;20027;-84
2023/08/17 05:55:49;;;;;;;4.68;2.25;;;;;;;;;;4955155;28;20023;-84
2023/08/17 05:58:15;;;;;;;4.55;2.20;;;;;;;;;;5000345;28;20023;-81
2023/08/17 06:00:41;;;;;;;4.15;2.20;;;;;;;;;;4983642;28;20038;-84
2023/08/17 06:03:07;;;;;;;4.05;2.20;;;;;;;;;;4969096;28;20058;-84
2023/08/17 06:05:33;;;;;;;3.45;2.08;;;20.30;99.90;;;;;;4979742;28;20038;-84
2023/08/17 06:07:59;;;;;;;3.75;2.08;;;;;;;;;;4993124;28;20073;-81
2023/08/17 06:10:25;;;;;;;5.85;3.20;;;21.10;99.90;;;;;;4983928;28;20076;-83
2023/08/17 06:12:53;;;;;;;6.13;1.75;;;21.10;99.90;;;;;;4946670;28;20034;-84
2023/08/17 06:15:19;;;;;;;8.60;2.67;;;;;;;;;;4962038;28;20028;-83
2023/08/17 06:17:45;;;;;;;3.53;1.83;;;;;;;;;;4966814;28;20154;-84
2023/08/17 06:20:11;;;;;;;5.05;1.83;;;21.00;99.90;;;;;;4977115;28;20031;-83
2023/08/17 06:22:37;;;;;;;4.93;2.45;;;;;;;;;;4946760;28;20402;-80
2023/08/17 06:25:05;;;;;;;5.97;2.97;;;;;;;;;;4954194;28;20166;-83
2023/08/17 06:27:31;;;;;;;3.97;2.67;;;;;;;;;;4961999;28;20041;-83
2023/08/17 06:29:57;;;;;;;4.82;3.00;;;;;;;;;;4965727;28;20050;-83
2023/08/17 06:32:23;;;;;;;5.90;2.28;;;;;;;;;;4975315;28;20423;-84
2023/08/17 06:34:49;;;;;;;4.25;2.60;;;;;;;;;;4976897;28;20109;-84
2023/08/17 06:37:15;;;;;;;5.00;2.38;;;;;;;;;;4983166;28;20026;-83
2023/08/17 06:39:41;;;;;;;5.20;2.50;;;;;;;;;;4966232;28;22243;-83
2023/08/17 06:42:07;;;;;;;5.00;2.10;;;;;;;;;;4954410;28;20031;-81
2023/08/17 06:44:33;;;;;;;4.68;2.05;;;;;;;;;;4979001;28;20030;-82
2023/08/17 06:46:58;;;;;;;3.42;1.92;;;;;;;;;;4960009;28;20063;-87
2023/08/17 06:49:27;;;;;;;8.48;2.70;;;21.60;99.90;;;;;;4961503;28;20151;-83
2023/08/17 06:51:53;;;;;;;5.40;2.13;;;;;;;;;;4953976;28;20054;-82
2023/08/17 06:54:19;;;;;;;5.60;2.55;;;;;;;;;;4986101;28;20039;-83
2023/08/17 06:56:45;;;;;;;4.20;2.58;;;;;;;;;;4956615;28;20078;-84
2023/08/17 06:59:12;;;;;;;5.85;2.20;;;;;;;;;;4974074;28;20031;-83
2023/08/17 07:01:39;;;;;;;5.65;2.40;;;;;;;;;;4959311;28;20038;-82
2023/08/17 07:04:05;;;;;;;4.80;2.67;;;;;;;;;;4959204;28;20484;-84
2023/08/17 07:06:31;;;;;;;4.13;1.75;;;;;;;;;;4965070;28;20023;-82
2023/08/17 07:08:57;;;;;;;7.80;3.20;;;;;;;;;;4965230;28;21610;-84
2023/08/17 07:11:23;;;;;;;4.55;2.60;;;;;;;;;;4964842;28;20565;-84
2023/08/17 07:13:49;;;;;;;3.75;2.17;;;;;;;;;;4962509;28;20042;-82
2023/08/17 07:16:15;;;;;;;3.85;1.63;;;;;;;;;;4963621;28;20031;-82
2023/08/17 07:18:41;;;;;;;14.00;2.80;;;;;;;;;;4957599;28;20045;-81
2023/08/17 07:21:07;;;;;;;3.85;2.10;;;;;;;;;;4971483;28;20380;-82
2023/08/17 07:23:33;;;;;;;6.28;1.95;;;;;;;;;;4961586;28;20039;-83
2023/08/17 07:25:59;;;;;;;5.20;1.70;;;;;;;;;;4976047;28;20034;-83
2023/08/17 07:28:24;;;;;;;4.03;2.17;;;;;;;;;;4979663;28;20053;-84
2023/08/17 07:30:50;;;;;;;3.72;2.35;;;;;;;;;;4963956;28;20027;-83
2023/08/17 07:33:16;;;;;;;3.90;1.58;;;;;;;;;;4970078;28;20042;-84
2023/08/17 07:35:42;;;;;;;9.45;2.38;;;;;;;;;;4956200;28;20031;-82
2023/08/17 07:38:08;;;;;;;4.53;2.20;;;;;;;;;;4967607;28;20038;-82
2023/08/17 07:40:34;;;;;;;7.57;2.28;;;;;;;;;;4982278;28;20030;-82
2023/08/17 07:43:01;;;;;;;4.05;2.00;;;;;;;;;;4964270;28;20185;-85
2023/08/17 07:45:27;;;;;;;4.75;1.80;;;;;;;;;;4956605;28;20022;-84
2023/08/17 07:47:53;;;;;;;6.95;3.17;;;;;;;;;;4966812;28;20302;-84
2023/08/17 07:50:21;;;;;;;4.78;2.33;;;;;;;;;;4975017;28;20315;-85
2023/08/17 07:52:47;;;;;;;3.33;2.20;;;;;;;;;;4970525;28;20040;-83
2023/08/17 07:55:13;;;;;;;3.05;2.08;;;;;;;;;;4956805;28;20034;-84
2023/08/17 07:57:39;;;;;;;5.47;2.15;;;;;;;;;;4967995;28;20038;-81
2023/08/17 08:00:05;;;;;;;3.00;2.08;;;;;;;;;;4961826;28;20448;-83
2023/08/17 08:02:31;;;;;;;3.53;2.42;;;;;;;;;;4979078;28;20027;-82
2023/08/17 08:04:56;;;;;;;2.78;1.77;;;23.40;99.90;;;;;;4983498;28;20026;-82
2023/08/17 08:07:22;;;;;;;2.95;2.15;;;;;;;;;;4957158;28;20038;-83
2023/08/17 08:09:48;;;;;;;5.95;3.15;;;;;;;;;;4984111;28;20336;-82
2023/08/17 08:12:14;;;;;;;4.65;2.15;;;;;;;;;;4955584;28;20035;-83
2023/08/17 08:14:40;;;;;;;5.82;2.05;;;;;;;;;;4982205;28;20031;-82
2023/08/17 08:17:06;;;;;;;4.03;1.45;;;;;;;;;;4973523;28;20153;-83
2023/08/17 08:19:32;;;;;;;3.22;2.63;;;;;;;;;;4981396;28;20077;-83
2023/08/17 08:21:59;;;;;;;3.20;2.25;;;;;;;;;;4971454;28;20030;-82
2023/08/17 08:24:25;;;;;;;4.95;2.72;;;;;;;;;;4978417;28;20487;-83
2023/08/17 08:26:52;;;;;;;3.88;2.58;;;;;;;;;;4989658;28;20023;-84
2023/08/17 08:29:18;;;;;;;7.47;2.90;;;;;;;;;;4983347;28;20401;-83
2023/08/17 08:31:44;;;;;;;6.28;2.50;;;;;;;;;;4971696;28;20194;-82
2023/08/17 08:34:10;;;;;;;5.03;2.88;;;;;;;;;;4957629;28;20038;-85
2023/08/17 08:36:36;;;;;;;4.43;2.38;;;;;;;;;;4964084;28;20039;-84
2023/08/17 08:39:02;;;;;;;4.65;2.42;;;;;;;;;;4961777;28;20118;-85
2023/08/17 08:41:30;;;;;;;3.22;1.92;;;26.70;99.90;;;;;;4967796;28;20034;-85
2023/08/17 08:43:56;;;;;;;7.50;2.20;;;;;;;;;;4975111;28;20607;-84
2023/08/17 08:46:26;;;;;;;3.65;2.33;;;28.90;99.90;;;;;;4956592;28;21318;-84
2023/08/17 08:48:55;;;;;;;5.63;2.10;;;30.70;99.90;;;;;;4964369;28;20090;-86
2023/08/17 08:51:28;;;;;;;2.78;1.73;;;32.00;99.90;;;;;;4956245;28;20450;-85
2023/08/17 08:54:03;;;;;;;3.42;1.67;;;;;;;;;;4961901;28;20038;-83
2023/08/17 08:56:32;;;;;;;3.22;1.70;;;35.10;99.00;;;;;;4969820;28;20042;-85
2023/08/17 08:59:01;;;;;;;5.05;1.77;;;36.00;92.40;;;;;;4958718;28;20023;-85
2023/08/17 09:01:28;;;;;;;4.53;1.92;;;;;;;;;;4962738;28;20038;-85
2023/08/17 09:03:57;;;;;;;2.08;1.75;;;38.30;86.10;;;;;;4958905;28;20117;-85
2023/08/17 09:06:23;;;;;;;7.05;2.40;;;;;;;;;;4965099;28;20111;-85
2023/08/17 09:08:49;;;;;;;3.08;1.75;;;;;;;;;;4953620;28;20031;-85
2023/08/17 09:11:15;;;;;;;3.75;2.10;;;;;;;;;;4958692;28;20035;-86
2023/08/17 09:13:41;;;;;;;4.28;2.20;;;;;;;;;;4970449;28;20050;-85
2023/08/17 09:16:07;;;;;;;3.88;2.17;;;;;;;;;;4963345;28;22112;-87
2023/08/17 09:18:35;;;;;;;4.32;1.90;;;39.80;77.80;;;;;;4961735;28;20190;-85
2023/08/17 09:21:02;;;;;;;6.35;2.00;;;;;;;;;;4969988;28;20045;-84
2023/08/17 09:23:27;;;;;;;4.18;2.17;;;;;;;;;;4974815;28;20026;-83
2023/08/17 09:25:58;;;;;;;2.50;1.50;;;;;;;;;;4969753;28;20035;-85
2023/08/17 09:28:24;;;;;;;5.53;1.90;;;;;;;;;;4961725;28;20587;-84
2023/08/17 09:30:53;;;;;;;3.40;1.80;;;34.40;89.70;;;;;;4988573;28;20274;-85
2023/08/17 09:33:23;;;;;;;2.97;1.75;;;33.50;91.10;;;;;;4967933;28;20352;-85
2023/08/17 09:35:50;;;;;;;3.60;2.25;;;32.60;92.90;;;;;;4964736;28;20384;-83
2023/08/17 09:38:16;;;;;;;4.22;2.35;;;;;;;;;;4984458;28;20400;-83
2023/08/17 09:40:42;;;;;;;3.85;1.92;;;;;;;;;;4960050;28;20027;-83
2023/08/17 09:43:09;;;;;;;5.20;1.95;;;31.50;95.00;;;;;;4955881;28;20309;-85
2023/08/17 09:45:36;;;;;;;3.67;2.33;;;;;;;;;;4959750;28;20416;-85
2023/08/17 09:48:02;;;;;;;3.95;2.28;;;;;;;;;;4951697;28;20031;-83
2023/08/17 09:50:29;;;;;;;4.05;2.53;;;;;;;;;;4947413;28;20042;-84
2023/08/17 09:52:55;;;;;;;3.50;1.98;;;;;;;;;;4957692;28;20039;-85
2023/08/17 09:55:23;;;;;;;3.15;2.00;;;30.70;97.50;;;;;;4963122;28;20093;-85
2023/08/17 09:57:50;;;;;;;4.25;2.20;;;30.80;97.80;;;;;;4954617;28;20047;-84
2023/08/17 10:00:20;;;;;;;2.45;1.90;;;30.70;97.00;;;;;;4954650;28;20030;-84
2023/08/17 10:02:50;;;;;;;3.22;2.30;;;30.40;96.50;;;;;;4956949;28;20321;-84
2023/08/17 10:05:19;;;;;;;3.13;2.55;;;30.60;97.30;;;;;;4959911;28;20026;-83
2023/08/17 10:07:50;;;;;;;5.28;2.20;;;;;;;;;;4963690;28;20027;-84
2023/08/17 10:10:22;;;;;;;4.18;2.95;;;30.30;96.50;;;;;;4964908;28;20027;-84
2023/08/17 10:12:52;;;;;;;4.68;3.22;;;30.30;96.70;;;;;;4947481;28;20058;-83
2023/08/17 10:15:19;;;;;;;3.75;2.33;;;29.60;96.40;;;;;;4953372;28;20046;-83
2023/08/17 10:18:00;;;;;;;4.53;2.30;;;30.40;97.40;;;;;;4962184;28;20035;-85
2023/08/17 10:20:30;;;;;;;7.82;2.65;;;29.90;96.50;;;;;;4962189;28;20407;-83
2023/08/17 10:23:14;;;;;;;5.50;3.15;;;30.10;96.20;;;;;;4961518;28;20035;-83
2023/08/17 10:25:43;;;;;;;3.05;2.10;;;31.30;97.70;;;;;;4947815;28;20031;-83
2023/08/17 10:28:12;;;;;;;3.33;2.40;;;;;;;;;;4964656;28;20490;-85
2023/08/17 10:30:38;;;;;;;4.57;2.47;;;;;;;;;;4981531;28;20042;-85
2023/08/17 10:33:05;;;;;;;4.97;3.08;;;29.80;98.50;;;;;;4962094;28;20113;-81
2023/08/17 10:35:33;;;;;;;4.03;2.60;;;;;;;;;;4947740;28;20358;-86
2023/08/17 10:37:59;;;;;;;5.53;2.33;;;30.00;98.70;;;;;;4960950;28;20034;-84
2023/08/17 10:40:39;;;;;;;3.67;2.53;;;29.90;97.40;;;;;;4953162;28;20031;-84
2023/08/17 10:43:05;;;;;;;4.80;2.50;;;;;;;;;;4960373;28;20484;-81
2023/08/17 10:45:34;;;;;;;4.32;2.85;;;29.90;97.80;;;;;;4978514;28;20037;-84
2023/08/17 10:48:27;;;;;;;5.00;2.70;;;31.80;99.30;;;;;;4946962;28;20085;-83
2023/08/17 10:51:01;;;;;;;4.70;2.83;;;29.80;99.90;;;;;;4958969;28;20039;-84
2023/08/17 10:53:28;;;;;;;4.03;2.63;;;;;;;;;;4942201;28;20035;-82
2023/08/17 10:55:58;;;;;;;3.70;2.88;;;30.30;97.90;;;;;;4955802;28;20392;-82
2023/08/17 10:58:24;;;;;;;3.97;2.95;;;;;;;;;;4956478;28;20827;-82
2023/08/17 11:00:54;;;;;;;3.10;2.22;;;29.70;98.20;;;;;;4960944;28;20114;-83
2023/08/17 11:03:22;;;;;;;5.15;2.83;;;30.50;99.40;;;;;;4955482;28;20069;-84
2023/08/17 11:05:53;;;;;;;6.72;2.85;;;;;;;;;;4960868;28;20113;-84
2023/08/17 11:08:32;;;;;;;4.40;2.10;;;30.00;99.90;;;;;;4979866;28;20080;-84
2023/08/17 11:11:05;;;;;;;4.90;3.20;;;;;;;;;;4956568;28;20062;-81
2023/08/17 11:13:34;;;;;;;3.17;2.10;;;29.80;97.80;;;;;;4956550;28;20045;-82
2023/08/17 11:16:01;;;;;;;5.72;2.20;;;30.70;98.90;;;;;;4971873;28;20118;-82
2023/08/17 11:18:29;;;;;;;3.22;2.30;;;;;;;;;;4965910;28;20034;-85
2023/08/17 11:20:55;;;;;;;3.63;2.35;;;;;;;;;;4952278;28;20027;-83
2023/08/17 11:23:21;;;;;;;5.38;2.83;;;;;;;;;;4955310;28;20023;-85
2023/08/17 11:25:47;;;;;;;4.50;2.72;;;;;;;;;;4963524;28;20103;-82
2023/08/17 11:28:14;;;;;;;3.95;2.60;;;;;;;;;;4965525;28;20455;-84
2023/08/17 11:30:40;;;;;;;3.90;2.63;;;;;;;;;;4981504;28;20135;-83
2023/08/17 11:33:08;;;;;;;4.65;2.47;;;31.10;96.70;;;;;;4957806;28;20490;-84
2023/08/17 11:35:34;;;;;;;4.20;2.67;;;;;;;;;;4936228;28;20126;-83
2023/08/17 11:38:00;;;;;;;2.63;2.13;;;;;;;;;;4978829;28;20027;-84
2023/08/17 11:40:28;;;;;;;4.28;2.72;;;30.90;97.30;;;;;;4977743;28;20070;-84
2023/08/17 11:42:53;;;;;;;9.50;2.53;;;;;;;;;;4962285;28;20126;-83
2023/08/17 11:45:19;;;;;;;3.38;2.42;;;;;;;;;;4973950;28;20149;-85
2023/08/17 11:47:47;;;;;;;3.95;2.40;;;30.50;97.10;;;;;;4982176;28;20019;-83
2023/08/17 11:50:14;;;;;;;4.22;2.83;;;;;;;;;;4969089;28;20026;-82
2023/08/17 11:52:40;;;;;;;4.30;2.85;;;;;;;;;;4970001;28;20517;-84
2023/08/17 11:55:07;;;;;;;4.25;2.83;;;30.70;97.00;;;;;;4962325;28;20138;-82
2023/08/17 11:57:33;;;;;;;4.88;2.97;;;;;;;;;;4980785;28;20118;-82
2023/08/17 12:00:00;;;;;;;3.83;2.40;;;31.00;99.30;;;;;;4960567;28;20372;-82
2023/08/17 12:02:27;;;;;;;3.45;2.30;;;30.40;97.70;;;;;;4984161;28;20038;-83
2023/08/17 12:04:54;;;;;;;3.67;2.55;;;31.20;97.00;;;;;;4983616;28;20146;-84
2023/08/17 12:07:24;;;;;;;6.22;2.85;;;;;;;;;;4967475;28;20033;-85
2023/08/17 12:09:51;;;;;;;3.92;2.50;;;31.10;96.80;;;;;;4975527;28;20479;-85
2023/08/17 12:12:22;;;;;;;5.18;2.97;;;31.40;97.50;;;;;;4967978;28;20542;-82
2023/08/17 12:14:48;;;;;;;5.13;3.40;;;;;;;;;;4974819;28;20097;-84
2023/08/17 12:17:18;;;;;;;4.82;2.72;;;31.70;96.30;;;;;;4969271;28;20035;-85
2023/08/17 12:19:44;;;;;;;4.90;2.55;;;;;;;;;;4983805;28;20039;-81
2023/08/17 12:22:10;;;;;;;3.45;2.42;;;;;;;;;;4981506;28;20053;-83
2023/08/17 12:24:38;;;;;;;4.40;2.30;;;31.80;95.60;;;;;;4967009;28;20030;-83
2023/08/17 12:27:04;;;;;;;4.30;2.80;;;;;;;;;;4967719;28;20171;-84
2023/08/17 12:29:30;;;;;;;4.57;3.13;;;;;;;;;;4961190;28;20055;-83
2023/08/17 12:32:00;;;;;;;4.22;2.78;;;30.90;94.90;;;;;;4965303;28;20030;-83
2023/08/17 12:34:26;;;;;;;7.45;2.95;;;;;;;;;;4956035;28;20058;-84
2023/08/17 12:36:52;;;;;;;6.13;3.00;;;;;;;;;;4963230;28;20077;-84
2023/08/17 12:39:20;;;;;;;3.05;2.38;;;;;;;;;;4965371;28;20444;-83
2023/08/17 12:41:46;;;;;;;5.28;2.92;;;;;;;;;;4979259;28;20057;-85
2023/08/17 12:44:14;;;;;;;5.10;2.63;;;;;;;;;;4963550;28;20022;-85
2023/08/17 12:46:41;;;;;;;5.40;2.40;;;;;;;;;;4966914;28;20059;-84
2023/08/17 12:49:07;;;;;;;4.05;2.80;;;;;;;;;;4983699;28;20027;-84
2023/08/17 12:51:33;;;;;;;4.63;2.72;;;;;;;;;;4965810;28;20045;-85
2023/08/17 12:53:59;;;;;;;3.03;2.10;;;;;;;;;;4964748;28;20049;-84
2023/08/17 12:56:25;;;;;;;4.38;2.35;;;;;;;;;;4965412;28;20030;-85
2023/08/17 12:58:51;;;;;;;4.13;2.70;;;;;;;;;;4982067;28;20094;-85
2023/08/17 13:01:18;;;;;;;3.80;2.50;;;;;;;;;;4981370;28;20395;-85
2023/08/17 13:03:44;;;;;;;3.38;2.35;;;;;;;;;;4971510;28;20023;-82
2023/08/17 13:06:10;;;;;;;4.38;2.42;;;;;;;;;;4963230;28;20053;-82
2023/08/17 13:08:36;;;;;;;5.82;2.35;;;;;;;;;;4953019;28;20039;-82
2023/08/17 13:11:02;;;;;;;3.95;2.90;;;;;;;;;;4976093;28;20019;-86
2023/08/17 13:13:29;;;;;;;4.03;2.97;;;;;;;;;;4964918;28;20595;-87
2023/08/17 13:15:54;;;;;;;5.25;3.05;;;;;;;;;;4964976;28;20117;-85
2023/08/17 13:18:20;;;;;;;3.67;2.60;;;;;;;;;;4979966;28;20345;-85
2023/08/17 13:20:46;;;;;;;7.10;2.65;;;;;;;;;;4966595;28;20026;-84
2023/08/17 13:23:13;;;;;;;5.53;2.63;;;;;;;;;;4978937;28;20042;-85
2023/08/17 13:25:40;;;;;;;3.15;2.42;;;;;;;;;;4984523;28;20563;-85
2023/08/17 13:28:06;;;;;;;3.80;2.72;;;;;;;;;;4982625;28;20419;-81
2023/08/17 13:30:32;;;;;;;4.07;2.83;;;;;;;;;;4963910;28;20035;-84
2023/08/17 13:32:58;;;;;;;3.75;2.67;;;;;;;;;;4970795;28;20037;-83
2023/08/17 13:35:24;;;;;;;4.20;2.40;;;;;;;;;;4973184;28;20035;-85
2023/08/17 13:37:54;;;;;;;3.95;2.80;;;;;;;;;;4987546;28;20076;-85
2023/08/17 13:40:21;;;;;;;7.82;2.83;;;31.40;96.70;;;;;;4964721;28;20041;-84
2023/08/17 13:42:47;;;;;;;4.30;2.53;;;;;;;;;;4969427;28;20051;-84
2023/08/17 13:45:13;;;;;;;5.18;3.13;;;;;;;;;;4969719;28;20089;-84
2023/08/17 13:47:39;;;;;;;4.82;2.78;;;;;;;;;;4950434;28;20038;-86
2023/08/17 13:50:05;;;;;;;4.43;2.50;;;;;;;;;;4977396;28;20030;-85
2023/08/17 13:52:31;;;;;;;3.45;2.45;;;;;;;;;;4962911;28;20067;-85
2023/08/17 13:54:58;;;;;;;3.13;2.33;;;;;;;;;;4968140;28;20038;-85
2023/08/17 13:57:24;;;;;;;5.00;2.40;;;;;;;;;;4967244;28;20101;-83
2023/08/17 13:59:50;;;;;;;4.57;2.40;;;;;;;;;;4981221;28;20058;-85
2023/08/17 14:02:18;;;;;;;3.90;2.45;;;30.90;98.90;;;;;;4965149;28;20039;-83
2023/08/17 14:04:44;;;;;;;4.72;2.67;;;;;;;;;;4969415;28;20031;-82
2023/08/17 14:07:10;;;;;;;3.30;2.63;;;;;;;;;;4986716;28;20050;-84
2023/08/17 14:09:37;;;;;;;6.35;2.70;;;;;;;;;;4976106;28;20061;-82
2023/08/17 14:12:04;;;;;;;3.60;2.33;;;;;;;;;;4968670;28;20023;-83
2023/08/17 14:14:30;;;;;;;3.55;2.05;;;30.70;98.10;;;;;;4981886;28;20166;-86